sensor_id;sensor_type;location;lat;lon;timestamp;P1;durP1;ratioP1;P2;durP2;ratioP2
17171;SDS011;8701;50.150;8.756;2023-03-24T00:00:15;3.47;;;3.17;;
17171;SDS011;8701;50.150;8.756;2023-03-24T00:04:20;3.10;;;2.80;;
17171;SDS011;8701;50.150;8.756;2023-03-24T00:08:24;3.57;;;3.10;;
17171;SDS011;8701;50.150;8.756;2023-03-24T00:12:30;3.63;;;3.17;;
17171;SDS011;8701;50.150;8.756;2023-03-24T00:16:32;3.47;;;3.17;;
17171;SDS011;8701;50.150;8.756;2023-03-24T00:20:38;4.60;;;3.50;;
17171;SDS011;8701;50.150;8.756;2023-03-24T00:24:43;4.03;;;3.37;;
17171;SDS011;8701;50.150;8.756;2023-03-24T00:28:46;3.97;;;2.90;;
17171;SDS011;8701;50.150;8.756;2023-03-24T00:32:49;5.00;;;3.00;;
17171;SDS011;8701;50.150;8.756;2023-03-24T00:36:52;4.13;;;3.00;;
17171;SDS011;8701;50.150;8.756;2023-03-24T00:40:56;3.30;;;3.00;;
17171;SDS011;8701;50.150;8.756;2023-03-24T00:45:00;3.60;;;3.10;;
17171;SDS011;8701;50.150;8.756;2023-03-24T00:49:04;3.97;;;2.97;;
17171;SDS011;8701;50.150;8.756;2023-03-24T00:53:07;3.13;;;2.83;;
17171;SDS011;8701;50.150;8.756;2023-03-24T00:57:11;3.13;;;2.83;;
17171;SDS011;8701;50.150;8.756;2023-03-24T01:01:14;3.40;;;3.00;;
17171;SDS011;8701;50.150;8.756;2023-03-24T01:05:17;5.13;;;3.77;;
17171;SDS011;8701;50.150;8.756;2023-03-24T01:09:20;3.93;;;3.50;;
17171;SDS011;8701;50.150;8.756;2023-03-24T01:13:25;5.83;;;3.30;;
17171;SDS011;8701;50.150;8.756;2023-03-24T01:17:29;3.53;;;2.93;;
17171;SDS011;8701;50.150;8.756;2023-03-24T01:21:31;3.40;;;3.10;;
17171;SDS011;8701;50.150;8.756;2023-03-24T01:25:35;4.83;;;2.83;;
17171;SDS011;8701;50.150;8.756;2023-03-24T01:29:39;2.93;;;2.60;;
17171;SDS011;8701;50.150;8.756;2023-03-24T01:33:41;3.13;;;2.67;;
17171;SDS011;8701;50.150;8.756;2023-03-24T01:37:44;6.03;;;3.17;;
17171;SDS011;8701;50.150;8.756;2023-03-24T01:41:46;3.07;;;2.43;;
17171;SDS011;8701;50.150;8.756;2023-03-24T01:45:57;3.07;;;2.77;;
17171;SDS011;8701;50.150;8.756;2023-03-24T01:50:06;3.47;;;3.10;;
17171;SDS011;8701;50.150;8.756;2023-03-24T01:54:10;3.57;;;3.27;;
17171;SDS011;8701;50.150;8.756;2023-03-24T01:58:17;4.17;;;3.30;;
17171;SDS011;8701;50.150;8.756;2023-03-24T02:02:43;3.93;;;3.07;;
17171;SDS011;8701;50.150;8.756;2023-03-24T02:06:53;5.03;;;3.17;;
17171;SDS011;8701;50.150;8.756;2023-03-24T02:10:57;3.83;;;2.60;;
17171;SDS011;8701;50.150;8.756;2023-03-24T02:15:09;4.70;;;3.03;;
17171;SDS011;8701;50.150;8.756;2023-03-24T02:19:21;3.37;;;2.80;;
17171;SDS011;8701;50.150;8.756;2023-03-24T02:28:30;5.00;;;3.50;;
17171;SDS011;8701;50.150;8.756;2023-03-24T02:42:12;3.37;;;3.07;;
17171;SDS011;8701;50.150;8.756;2023-03-24T02:46:21;5.27;;;3.70;;
17171;SDS011;8701;50.150;8.756;2023-03-24T02:50:27;4.80;;;3.63;;
17171;SDS011;8701;50.150;8.756;2023-03-24T02:54:35;5.90;;;3.60;;
17171;SDS011;8701;50.150;8.756;2023-03-24T02:58:47;3.97;;;3.37;;
17171;SDS011;8701;50.150;8.756;2023-03-24T03:02:54;5.07;;;3.40;;
17171;SDS011;8701;50.150;8.756;2023-03-24T03:07:02;3.70;;;3.40;;
17171;SDS011;8701;50.150;8.756;2023-03-24T03:11:11;6.33;;;3.03;;
17171;SDS011;8701;50.150;8.756;2023-03-24T03:15:18;3.30;;;3.07;;
17171;SDS011;8701;50.150;8.756;2023-03-24T03:19:24;7.27;;;3.80;;
17171;SDS011;8701;50.150;8.756;2023-03-24T03:23:32;4.57;;;3.53;;
17171;SDS011;8701;50.150;8.756;2023-03-24T03:27:37;6.10;;;3.90;;
17171;SDS011;8701;50.150;8.756;2023-03-24T03:31:45;5.10;;;3.80;;
17171;SDS011;8701;50.150;8.756;2023-03-24T03:35:53;3.50;;;3.20;;
17171;SDS011;8701;50.150;8.756;2023-03-24T03:40:00;6.00;;;3.83;;
17171;SDS011;8701;50.150;8.756;2023-03-24T03:44:08;4.97;;;3.90;;
17171;SDS011;8701;50.150;8.756;2023-03-24T03:48:12;5.63;;;3.63;;
17171;SDS011;8701;50.150;8.756;2023-03-24T03:52:17;6.93;;;3.63;;
17171;SDS011;8701;50.150;8.756;2023-03-24T03:56:22;4.40;;;3.77;;
17171;SDS011;8701;50.150;8.756;2023-03-24T04:00:46;3.73;;;3.43;;
17171;SDS011;8701;50.150;8.756;2023-03-24T04:05:13;5.10;;;3.90;;
17171;SDS011;8701;50.150;8.756;2023-03-24T04:09:45;4.80;;;4.03;;
17171;SDS011;8701;50.150;8.756;2023-03-24T04:14:02;4.80;;;3.73;;
17171;SDS011;8701;50.150;8.756;2023-03-24T04:18:57;4.40;;;4.00;;
17171;SDS011;8701;50.150;8.756;2023-03-24T04:23:11;8.53;;;3.63;;
17171;SDS011;8701;50.150;8.756;2023-03-24T04:27:26;4.93;;;3.53;;
17171;SDS011;8701;50.150;8.756;2023-03-24T04:31:39;3.47;;;3.20;;
17171;SDS011;8701;50.150;8.756;2023-03-24T04:35:45;8.53;;;4.43;;
17171;SDS011;8701;50.150;8.756;2023-03-24T04:40:13;4.67;;;3.90;;
17171;SDS011;8701;50.150;8.756;2023-03-24T04:44:18;5.13;;;4.33;;
17171;SDS011;8701;50.150;8.756;2023-03-24T04:48:40;5.10;;;3.90;;
17171;SDS011;8701;50.150;8.756;2023-03-24T04:53:07;9.40;;;4.00;;
17171;SDS011;8701;50.150;8.756;2023-03-24T04:57:12;4.47;;;3.97;;
17171;SDS011;8701;50.150;8.756;2023-03-24T05:01:19;6.67;;;3.97;;
17171;SDS011;8701;50.150;8.756;2023-03-24T05:05:38;4.30;;;3.90;;
17171;SDS011;8701;50.150;8.756;2023-03-24T05:09:40;4.33;;;3.57;;
17171;SDS011;8701;50.150;8.756;2023-03-24T05:13:44;7.63;;;4.33;;
17171;SDS011;8701;50.150;8.756;2023-03-24T05:17:47;5.63;;;4.60;;
17171;SDS011;8701;50.150;8.756;2023-03-24T05:21:51;8.93;;;5.30;;
17171;SDS011;8701;50.150;8.756;2023-03-24T05:25:56;8.10;;;5.60;;
17171;SDS011;8701;50.150;8.756;2023-03-24T05:30:02;6.10;;;5.03;;
17171;SDS011;8701;50.150;8.756;2023-03-24T05:34:07;8.30;;;5.30;;
17171;SDS011;8701;50.150;8.756;2023-03-24T05:38:24;6.20;;;5.00;;
17171;SDS011;8701;50.150;8.756;2023-03-24T05:42:28;6.37;;;4.97;;
17171;SDS011;8701;50.150;8.756;2023-03-24T05:46:34;8.80;;;5.40;;
17171;SDS011;8701;50.150;8.756;2023-03-24T05:50:38;5.83;;;5.23;;
17171;SDS011;8701;50.150;8.756;2023-03-24T05:54:41;7.60;;;5.67;;
17171;SDS011;8701;50.150;8.756;2023-03-24T05:58:52;6.10;;;5.50;;
17171;SDS011;8701;50.150;8.756;2023-03-24T06:02:57;6.93;;;5.30;;
17171;SDS011;8701;50.150;8.756;2023-03-24T06:07:22;5.30;;;4.80;;
17171;SDS011;8701;50.150;8.756;2023-03-24T06:11:26;5.93;;;5.33;;
17171;SDS011;8701;50.150;8.756;2023-03-24T06:15:36;10.90;;;5.33;;
17171;SDS011;8701;50.150;8.756;2023-03-24T06:19:58;6.57;;;5.23;;
17171;SDS011;8701;50.150;8.756;2023-03-24T06:24:31;6.63;;;5.37;;
17171;SDS011;8701;50.150;8.756;2023-03-24T06:28:41;5.13;;;4.53;;
17171;SDS011;8701;50.150;8.756;2023-03-24T06:32:49;3.70;;;3.40;;
17171;SDS011;8701;50.150;8.756;2023-03-24T06:36:54;12.43;;;4.00;;
17171;SDS011;8701;50.150;8.756;2023-03-24T06:40:58;4.80;;;3.30;;
17171;SDS011;8701;50.150;8.756;2023-03-24T06:45:01;3.37;;;3.07;;
17171;SDS011;8701;50.150;8.756;2023-03-24T06:49:04;3.07;;;2.30;;
17171;SDS011;8701;50.150;8.756;2023-03-24T06:53:07;3.20;;;2.90;;
17171;SDS011;8701;50.150;8.756;2023-03-24T06:57:10;3.03;;;2.17;;
17171;SDS011;8701;50.150;8.756;2023-03-24T07:01:32;2.90;;;2.50;;
17171;SDS011;8701;50.150;8.756;2023-03-24T07:05:39;3.53;;;2.57;;
17171;SDS011;8701;50.150;8.756;2023-03-24T07:09:44;2.90;;;2.70;;
17171;SDS011;8701;50.150;8.756;2023-03-24T07:13:47;3.00;;;2.73;;
17171;SDS011;8701;50.150;8.756;2023-03-24T07:17:50;4.00;;;2.90;;
17171;SDS011;8701;50.150;8.756;2023-03-24T07:22:22;3.73;;;2.80;;
17171;SDS011;8701;50.150;8.756;2023-03-24T07:26:45;4.10;;;3.20;;
17171;SDS011;8701;50.150;8.756;2023-03-24T07:30:54;4.50;;;2.83;;
17171;SDS011;8701;50.150;8.756;2023-03-24T07:34:57;3.47;;;2.90;;
17171;SDS011;8701;50.150;8.756;2023-03-24T07:38:59;4.03;;;2.90;;
17171;SDS011;8701;50.150;8.756;2023-03-24T07:43:08;3.73;;;2.90;;
17171;SDS011;8701;50.150;8.756;2023-03-24T07:47:31;3.23;;;2.47;;
17171;SDS011;8701;50.150;8.756;2023-03-24T07:51:33;3.87;;;2.80;;
17171;SDS011;8701;50.150;8.756;2023-03-24T07:55:55;3.90;;;3.40;;
17171;SDS011;8701;50.150;8.756;2023-03-24T08:00:00;3.47;;;3.17;;
17171;SDS011;8701;50.150;8.756;2023-03-24T08:04:26;2.80;;;2.60;;
17171;SDS011;8701;50.150;8.756;2023-03-24T08:08:47;3.80;;;3.33;;
17171;SDS011;8701;50.150;8.756;2023-03-24T08:12:49;5.40;;;3.17;;
17171;SDS011;8701;50.150;8.756;2023-03-24T08:16:53;5.90;;;3.20;;
17171;SDS011;8701;50.150;8.756;2023-03-24T08:20:56;3.50;;;3.20;;
17171;SDS011;8701;50.150;8.756;2023-03-24T08:25:01;3.90;;;3.30;;
17171;SDS011;8701;50.150;8.756;2023-03-24T08:29:03;6.77;;;3.53;;
17171;SDS011;8701;50.150;8.756;2023-03-24T08:33:07;3.37;;;3.07;;
17171;SDS011;8701;50.150;8.756;2023-03-24T08:37:11;3.57;;;3.23;;
17171;SDS011;8701;50.150;8.756;2023-03-24T08:41:13;5.00;;;3.60;;
17171;SDS011;8701;50.150;8.756;2023-03-24T08:45:17;5.90;;;2.57;;
17171;SDS011;8701;50.150;8.756;2023-03-24T08:49:22;3.40;;;2.60;;
17171;SDS011;8701;50.150;8.756;2023-03-24T08:53:25;8.53;;;3.30;;
17171;SDS011;8701;50.150;8.756;2023-03-24T08:57:27;3.50;;;3.20;;
17171;SDS011;8701;50.150;8.756;2023-03-24T09:01:29;5.10;;;3.30;;
17171;SDS011;8701;50.150;8.756;2023-03-24T09:05:34;3.77;;;3.47;;
17171;SDS011;8701;50.150;8.756;2023-03-24T09:09:37;4.13;;;3.73;;
17171;SDS011;8701;50.150;8.756;2023-03-24T09:13:39;3.70;;;2.97;;
17171;SDS011;8701;50.150;8.756;2023-03-24T09:17:42;2.40;;;2.20;;
17171;SDS011;8701;50.150;8.756;2023-03-24T09:21:45;4.57;;;2.20;;
17171;SDS011;8701;50.150;8.756;2023-03-24T09:25:48;2.43;;;1.80;;
17171;SDS011;8701;50.150;8.756;2023-03-24T09:29:51;6.97;;;2.00;;
17171;SDS011;8701;50.150;8.756;2023-03-24T09:33:54;3.77;;;1.90;;
17171;SDS011;8701;50.150;8.756;2023-03-24T09:37:58;4.33;;;1.87;;
17171;SDS011;8701;50.150;8.756;2023-03-24T09:42:02;4.13;;;1.57;;
17171;SDS011;8701;50.150;8.756;2023-03-24T09:46:05;1.43;;;1.33;;
17171;SDS011;8701;50.150;8.756;2023-03-24T09:50:19;1.40;;;1.30;;
17171;SDS011;8701;50.150;8.756;2023-03-24T09:54:27;1.93;;;1.40;;
17171;SDS011;8701;50.150;8.756;2023-03-24T09:58:36;1.00;;;0.90;;
17171;SDS011;8701;50.150;8.756;2023-03-24T10:02:41;0.90;;;0.90;;
17171;SDS011;8701;50.150;8.756;2023-03-24T10:06:44;1.43;;;1.03;;
17171;SDS011;8701;50.150;8.756;2023-03-24T10:10:52;1.20;;;0.93;;
17171;SDS011;8701;50.150;8.756;2023-03-24T10:15:08;0.90;;;0.90;;
17171;SDS011;8701;50.150;8.756;2023-03-24T10:19:20;4.77;;;1.20;;
17171;SDS011;8701;50.150;8.756;2023-03-24T10:23:31;3.53;;;0.80;;
17171;SDS011;8701;50.150;8.756;2023-03-24T10:27:40;1.93;;;0.70;;
17171;SDS011;8701;50.150;8.756;2023-03-24T10:31:48;9.53;;;1.33;;
17171;SDS011;8701;50.150;8.756;2023-03-24T10:35:54;8.20;;;1.50;;
17171;SDS011;8701;50.150;8.756;2023-03-24T10:40:01;3.00;;;1.13;;
17171;SDS011;8701;50.150;8.756;2023-03-24T10:44:13;3.00;;;1.07;;
17171;SDS011;8701;50.150;8.756;2023-03-24T10:52:37;3.13;;;1.17;;
17171;SDS011;8701;50.150;8.756;2023-03-24T10:56:41;7.20;;;2.17;;
17171;SDS011;8701;50.150;8.756;2023-03-24T11:00:46;8.20;;;1.80;;
17171;SDS011;8701;50.150;8.756;2023-03-24T11:04:51;5.17;;;3.40;;
17171;SDS011;8701;50.150;8.756;2023-03-24T11:09:09;7.50;;;4.93;;
17171;SDS011;8701;50.150;8.756;2023-03-24T11:13:19;8.00;;;6.20;;
17171;SDS011;8701;50.150;8.756;2023-03-24T11:17:30;9.73;;;5.90;;
17171;SDS011;8701;50.150;8.756;2023-03-24T11:21:33;8.60;;;5.73;;
17171;SDS011;8701;50.150;8.756;2023-03-24T11:25:38;10.33;;;5.33;;
17171;SDS011;8701;50.150;8.756;2023-03-24T11:29:41;4.40;;;3.10;;
17171;SDS011;8701;50.150;8.756;2023-03-24T11:33:46;1.60;;;1.40;;
17171;SDS011;8701;50.150;8.756;2023-03-24T11:37:52;2.40;;;1.50;;
17171;SDS011;8701;50.150;8.756;2023-03-24T11:42:01;3.87;;;1.50;;
17171;SDS011;8701;50.150;8.756;2023-03-24T11:46:07;3.20;;;1.90;;
17171;SDS011;8701;50.150;8.756;2023-03-24T11:50:16;4.50;;;1.47;;
17171;SDS011;8701;50.150;8.756;2023-03-24T11:54:22;7.80;;;1.50;;
17171;SDS011;8701;50.150;8.756;2023-03-24T11:58:30;2.13;;;1.30;;
17171;SDS011;8701;50.150;8.756;2023-03-24T12:02:41;2.70;;;1.30;;
17171;SDS011;8701;50.150;8.756;2023-03-24T12:07:03;4.37;;;1.90;;
17171;SDS011;8701;50.150;8.756;2023-03-24T12:11:32;10.73;;;1.60;;
17171;SDS011;8701;50.150;8.756;2023-03-24T12:15:51;1.80;;;1.30;;
17171;SDS011;8701;50.150;8.756;2023-03-24T12:20:05;5.70;;;1.10;;
17171;SDS011;8701;50.150;8.756;2023-03-24T12:24:30;1.97;;;1.20;;
17171;SDS011;8701;50.150;8.756;2023-03-24T12:33:36;1.73;;;1.20;;
17171;SDS011;8701;50.150;8.756;2023-03-24T12:37:48;6.80;;;1.30;;
17171;SDS011;8701;50.150;8.756;2023-03-24T12:42:02;3.23;;;1.37;;
17171;SDS011;8701;50.150;8.756;2023-03-24T12:46:16;4.10;;;1.30;;
17171;SDS011;8701;50.150;8.756;2023-03-24T12:50:33;3.17;;;1.37;;
17171;SDS011;8701;50.150;8.756;2023-03-24T12:54:44;5.77;;;1.47;;
17171;SDS011;8701;50.150;8.756;2023-03-24T12:58:54;3.77;;;1.70;;
17171;SDS011;8701;50.150;8.756;2023-03-24T13:03:03;2.77;;;1.20;;
17171;SDS011;8701;50.150;8.756;2023-03-24T13:07:09;6.80;;;1.40;;
17171;SDS011;8701;50.150;8.756;2023-03-24T13:11:14;2.10;;;1.37;;
17171;SDS011;8701;50.150;8.756;2023-03-24T13:15:21;3.53;;;1.20;;
17171;SDS011;8701;50.150;8.756;2023-03-24T13:19:29;3.27;;;1.40;;
17171;SDS011;8701;50.150;8.756;2023-03-24T13:23:36;3.00;;;1.40;;
17171;SDS011;8701;50.150;8.756;2023-03-24T13:27:44;2.63;;;1.27;;
17171;SDS011;8701;50.150;8.756;2023-03-24T13:31:52;2.60;;;1.40;;
17171;SDS011;8701;50.150;8.756;2023-03-24T13:36:06;2.23;;;1.23;;
17171;SDS011;8701;50.150;8.756;2023-03-24T13:40:20;5.23;;;1.40;;
17171;SDS011;8701;50.150;8.756;2023-03-24T13:44:24;3.50;;;1.23;;
17171;SDS011;8701;50.150;8.756;2023-03-24T13:48:32;3.03;;;1.40;;
17171;SDS011;8701;50.150;8.756;2023-03-24T13:52:38;4.40;;;1.53;;
17171;SDS011;8701;50.150;8.756;2023-03-24T13:56:46;3.07;;;1.40;;
17171;SDS011;8701;50.150;8.756;2023-03-24T14:01:13;7.20;;;1.40;;
17171;SDS011;8701;50.150;8.756;2023-03-24T14:05:59;11.37;;;2.10;;
17171;SDS011;8701;50.150;8.756;2023-03-24T14:10:10;5.50;;;1.20;;
17171;SDS011;8701;50.150;8.756;2023-03-24T14:14:36;5.70;;;1.50;;
17171;SDS011;8701;50.150;8.756;2023-03-24T14:19:25;6.77;;;1.30;;
17171;SDS011;8701;50.150;8.756;2023-03-24T14:23:33;4.27;;;1.43;;
17171;SDS011;8701;50.150;8.756;2023-03-24T14:27:39;4.90;;;1.07;;
17171;SDS011;8701;50.150;8.756;2023-03-24T14:31:43;5.97;;;1.27;;
17171;SDS011;8701;50.150;8.756;2023-03-24T14:36:00;4.23;;;1.20;;
17171;SDS011;8701;50.150;8.756;2023-03-24T14:40:21;4.33;;;1.30;;
17171;SDS011;8701;50.150;8.756;2023-03-24T14:48:57;6.50;;;1.40;;
17171;SDS011;8701;50.150;8.756;2023-03-24T14:53:04;7.10;;;1.37;;
17171;SDS011;8701;50.150;8.756;2023-03-24T14:57:08;5.90;;;1.77;;
17171;SDS011;8701;50.150;8.756;2023-03-24T15:01:20;8.70;;;1.60;;
17171;SDS011;8701;50.150;8.756;2023-03-24T15:05:27;5.90;;;1.40;;
17171;SDS011;8701;50.150;8.756;2023-03-24T15:09:31;12.73;;;1.57;;
17171;SDS011;8701;50.150;8.756;2023-03-24T15:13:38;6.60;;;1.50;;
17171;SDS011;8701;50.150;8.756;2023-03-24T15:17:43;5.03;;;1.33;;
17171;SDS011;8701;50.150;8.756;2023-03-24T15:21:46;5.40;;;1.27;;
17171;SDS011;8701;50.150;8.756;2023-03-24T15:25:50;6.63;;;1.63;;
17171;SDS011;8701;50.150;8.756;2023-03-24T15:29:55;10.47;;;1.70;;
17171;SDS011;8701;50.150;8.756;2023-03-24T15:34:02;4.80;;;1.40;;
17171;SDS011;8701;50.150;8.756;2023-03-24T15:38:16;5.93;;;1.33;;
17171;SDS011;8701;50.150;8.756;2023-03-24T15:42:19;5.60;;;1.57;;
17171;SDS011;8701;50.150;8.756;2023-03-24T15:46:24;5.17;;;1.10;;
17171;SDS011;8701;50.150;8.756;2023-03-24T15:50:29;5.40;;;1.30;;
17171;SDS011;8701;50.150;8.756;2023-03-24T15:54:37;4.63;;;1.40;;
17171;SDS011;8701;50.150;8.756;2023-03-24T15:58:43;7.17;;;1.30;;
17171;SDS011;8701;50.150;8.756;2023-03-24T16:02:49;11.93;;;1.87;;
17171;SDS011;8701;50.150;8.756;2023-03-24T16:06:53;4.80;;;1.30;;
17171;SDS011;8701;50.150;8.756;2023-03-24T16:10:58;5.17;;;1.30;;
17171;SDS011;8701;50.150;8.756;2023-03-24T16:15:04;6.80;;;1.40;;
17171;SDS011;8701;50.150;8.756;2023-03-24T16:19:08;4.20;;;1.10;;
17171;SDS011;8701;50.150;8.756;2023-03-24T16:23:10;6.10;;;1.40;;
17171;SDS011;8701;50.150;8.756;2023-03-24T16:27:12;4.97;;;1.20;;
17171;SDS011;8701;50.150;8.756;2023-03-24T16:31:16;4.10;;;1.20;;
17171;SDS011;8701;50.150;8.756;2023-03-24T16:35:25;6.10;;;0.97;;
17171;SDS011;8701;50.150;8.756;2023-03-24T16:39:27;6.90;;;1.47;;
17171;SDS011;8701;50.150;8.756;2023-03-24T16:43:30;6.13;;;1.40;;
17171;SDS011;8701;50.150;8.756;2023-03-24T16:47:33;10.10;;;1.80;;
17171;SDS011;8701;50.150;8.756;2023-03-24T16:51:37;5.70;;;1.47;;
17171;SDS011;8701;50.150;8.756;2023-03-24T16:55:39;6.07;;;1.57;;
17171;SDS011;8701;50.150;8.756;2023-03-24T16:59:43;5.17;;;1.57;;
17171;SDS011;8701;50.150;8.756;2023-03-24T17:03:46;8.37;;;2.00;;
17171;SDS011;8701;50.150;8.756;2023-03-24T17:07:50;11.43;;;3.80;;
17171;SDS011;8701;50.150;8.756;2023-03-24T17:11:53;28.97;;;11.10;;
17171;SDS011;8701;50.150;8.756;2023-03-24T17:15:57;12.03;;;3.77;;
17171;SDS011;8701;50.150;8.756;2023-03-24T17:20:00;29.57;;;13.67;;
17171;SDS011;8701;50.150;8.756;2023-03-24T17:24:04;34.30;;;13.47;;
17171;SDS011;8701;50.150;8.756;2023-03-24T17:28:13;7.97;;;2.80;;
17171;SDS011;8701;50.150;8.756;2023-03-24T17:32:17;7.67;;;1.53;;
17171;SDS011;8701;50.150;8.756;2023-03-24T17:36:19;7.13;;;1.63;;
17171;SDS011;8701;50.150;8.756;2023-03-24T17:40:22;5.97;;;1.80;;
17171;SDS011;8701;50.150;8.756;2023-03-24T17:44:25;10.00;;;1.87;;
17171;SDS011;8701;50.150;8.756;2023-03-24T17:48:27;8.33;;;1.83;;
17171;SDS011;8701;50.150;8.756;2023-03-24T17:52:30;14.00;;;1.63;;
17171;SDS011;8701;50.150;8.756;2023-03-24T17:56:33;7.83;;;2.70;;
17171;SDS011;8701;50.150;8.756;2023-03-24T18:00:36;11.83;;;1.83;;
17171;SDS011;8701;50.150;8.756;2023-03-24T18:04:38;7.90;;;1.83;;
17171;SDS011;8701;50.150;8.756;2023-03-24T18:08:40;9.13;;;1.70;;
17171;SDS011;8701;50.150;8.756;2023-03-24T18:12:44;6.83;;;2.03;;
17171;SDS011;8701;50.150;8.756;2023-03-24T18:16:46;4.37;;;1.30;;
17171;SDS011;8701;50.150;8.756;2023-03-24T18:20:48;8.60;;;4.00;;
17171;SDS011;8701;50.150;8.756;2023-03-24T18:24:51;15.13;;;2.10;;
17171;SDS011;8701;50.150;8.756;2023-03-24T18:28:55;9.80;;;2.77;;
17171;SDS011;8701;50.150;8.756;2023-03-24T18:32:57;6.03;;;2.07;;
17171;SDS011;8701;50.150;8.756;2023-03-24T18:37:01;6.93;;;1.63;;
17171;SDS011;8701;50.150;8.756;2023-03-24T18:41:04;4.97;;;1.60;;
17171;SDS011;8701;50.150;8.756;2023-03-24T18:45:09;9.97;;;1.80;;
17171;SDS011;8701;50.150;8.756;2023-03-24T18:49:16;7.63;;;1.60;;
17171;SDS011;8701;50.150;8.756;2023-03-24T18:53:19;7.63;;;1.40;;
17171;SDS011;8701;50.150;8.756;2023-03-24T18:57:21;8.37;;;1.57;;
17171;SDS011;8701;50.150;8.756;2023-03-24T19:01:25;13.90;;;1.67;;
17171;SDS011;8701;50.150;8.756;2023-03-24T19:05:30;9.43;;;1.40;;
17171;SDS011;8701;50.150;8.756;2023-03-24T19:09:33;6.80;;;1.53;;
17171;SDS011;8701;50.150;8.756;2023-03-24T19:13:35;6.10;;;1.60;;
17171;SDS011;8701;50.150;8.756;2023-03-24T19:17:39;7.00;;;1.60;;
17171;SDS011;8701;50.150;8.756;2023-03-24T19:21:41;5.93;;;1.70;;
17171;SDS011;8701;50.150;8.756;2023-03-24T19:25:44;5.53;;;1.57;;
17171;SDS011;8701;50.150;8.756;2023-03-24T19:29:46;6.40;;;1.83;;
17171;SDS011;8701;50.150;8.756;2023-03-24T19:33:49;7.77;;;1.67;;
17171;SDS011;8701;50.150;8.756;2023-03-24T19:37:53;6.97;;;2.20;;
17171;SDS011;8701;50.150;8.756;2023-03-24T19:41:55;10.50;;;1.50;;
17171;SDS011;8701;50.150;8.756;2023-03-24T19:45:59;4.63;;;1.27;;
17171;SDS011;8701;50.150;8.756;2023-03-24T19:50:03;7.87;;;1.43;;
17171;SDS011;8701;50.150;8.756;2023-03-24T19:54:06;5.90;;;1.33;;
17171;SDS011;8701;50.150;8.756;2023-03-24T19:58:08;6.13;;;1.27;;
17171;SDS011;8701;50.150;8.756;2023-03-24T20:02:12;7.63;;;1.43;;
17171;SDS011;8701;50.150;8.756;2023-03-24T20:06:17;5.13;;;1.20;;
17171;SDS011;8701;50.150;8.756;2023-03-24T20:10:20;5.20;;;1.20;;
17171;SDS011;8701;50.150;8.756;2023-03-24T20:14:22;5.70;;;1.40;;
17171;SDS011;8701;50.150;8.756;2023-03-24T20:18:24;6.63;;;1.30;;
17171;SDS011;8701;50.150;8.756;2023-03-24T20:22:28;5.07;;;1.40;;
17171;SDS011;8701;50.150;8.756;2023-03-24T20:26:30;8.10;;;1.30;;
17171;SDS011;8701;50.150;8.756;2023-03-24T20:30:32;4.57;;;1.03;;
17171;SDS011;8701;50.150;8.756;2023-03-24T20:34:35;4.00;;;1.10;;
17171;SDS011;8701;50.150;8.756;2023-03-24T20:38:39;4.40;;;1.10;;
17171;SDS011;8701;50.150;8.756;2023-03-24T20:42:41;4.13;;;1.20;;
17171;SDS011;8701;50.150;8.756;2023-03-24T20:46:44;5.37;;;1.20;;
17171;SDS011;8701;50.150;8.756;2023-03-24T20:50:46;8.07;;;1.90;;
17171;SDS011;8701;50.150;8.756;2023-03-24T20:54:49;5.47;;;1.30;;
17171;SDS011;8701;50.150;8.756;2023-03-24T20:58:53;4.73;;;1.33;;
17171;SDS011;8701;50.150;8.756;2023-03-24T21:02:55;5.07;;;1.13;;
17171;SDS011;8701;50.150;8.756;2023-03-24T21:06:57;3.80;;;1.10;;
17171;SDS011;8701;50.150;8.756;2023-03-24T21:11:01;3.80;;;1.23;;
17171;SDS011;8701;50.150;8.756;2023-03-24T21:15:03;4.33;;;0.90;;
17171;SDS011;8701;50.150;8.756;2023-03-24T21:19:06;3.00;;;1.10;;
17171;SDS011;8701;50.150;8.756;2023-03-24T21:23:09;6.60;;;1.20;;
17171;SDS011;8701;50.150;8.756;2023-03-24T21:27:13;5.03;;;1.00;;
17171;SDS011;8701;50.150;8.756;2023-03-24T21:31:16;2.70;;;0.90;;
17171;SDS011;8701;50.150;8.756;2023-03-24T21:35:20;4.13;;;0.93;;
17171;SDS011;8701;50.150;8.756;2023-03-24T21:39:24;5.47;;;1.27;;
17171;SDS011;8701;50.150;8.756;2023-03-24T21:43:28;3.87;;;1.10;;
17171;SDS011;8701;50.150;8.756;2023-03-24T21:47:30;3.23;;;1.00;;
17171;SDS011;8701;50.150;8.756;2023-03-24T21:51:34;9.20;;;2.20;;
17171;SDS011;8701;50.150;8.756;2023-03-24T21:55:36;6.67;;;1.40;;
17171;SDS011;8701;50.150;8.756;2023-03-24T21:59:39;4.63;;;1.07;;
17171;SDS011;8701;50.150;8.756;2023-03-24T22:03:41;3.43;;;0.90;;
17171;SDS011;8701;50.150;8.756;2023-03-24T22:07:46;3.30;;;0.90;;
17171;SDS011;8701;50.150;8.756;2023-03-24T22:11:48;3.20;;;0.70;;
17171;SDS011;8701;50.150;8.756;2023-03-24T22:15:54;3.93;;;1.00;;
17171;SDS011;8701;50.150;8.756;2023-03-24T22:19:57;4.93;;;1.00;;
17171;SDS011;8701;50.150;8.756;2023-03-24T22:23:59;3.60;;;0.80;;
17171;SDS011;8701;50.150;8.756;2023-03-24T22:28:01;4.67;;;0.90;;
17171;SDS011;8701;50.150;8.756;2023-03-24T22:32:05;3.00;;;0.90;;
17171;SDS011;8701;50.150;8.756;2023-03-24T22:36:08;2.63;;;0.70;;
17171;SDS011;8701;50.150;8.756;2023-03-24T22:40:11;4.17;;;1.00;;
17171;SDS011;8701;50.150;8.756;2023-03-24T22:44:13;4.43;;;1.20;;
17171;SDS011;8701;50.150;8.756;2023-03-24T22:48:17;4.00;;;1.10;;
17171;SDS011;8701;50.150;8.756;2023-03-24T22:52:19;2.60;;;0.80;;
17171;SDS011;8701;50.150;8.756;2023-03-24T22:56:22;3.27;;;1.03;;
17171;SDS011;8701;50.150;8.756;2023-03-24T23:00:25;3.20;;;0.80;;
17171;SDS011;8701;50.150;8.756;2023-03-24T23:04:28;3.47;;;0.90;;
17171;SDS011;8701;50.150;8.756;2023-03-24T23:08:31;4.50;;;1.03;;
17171;SDS011;8701;50.150;8.756;2023-03-24T23:12:34;3.00;;;0.80;;
17171;SDS011;8701;50.150;8.756;2023-03-24T23:16:37;3.17;;;0.80;;
17171;SDS011;8701;50.150;8.756;2023-03-24T23:20:40;3.23;;;0.80;;
17171;SDS011;8701;50.150;8.756;2023-03-24T23:24:43;4.27;;;0.90;;
17171;SDS011;8701;50.150;8.756;2023-03-24T23:28:47;3.27;;;1.00;;
17171;SDS011;8701;50.150;8.756;2023-03-24T23:32:50;3.60;;;0.80;;
17171;SDS011;8701;50.150;8.756;2023-03-24T23:36:53;3.70;;;0.90;;
17171;SDS011;8701;50.150;8.756;2023-03-24T23:40:56;3.57;;;0.70;;
17171;SDS011;8701;50.150;8.756;2023-03-24T23:44:58;3.83;;;0.93;;
17171;SDS011;8701;50.150;8.756;2023-03-24T23:49:00;3.30;;;0.90;;
17171;SDS011;8701;50.150;8.756;2023-03-24T23:53:04;5.73;;;0.80;;
17171;SDS011;8701;50.150;8.756;2023-03-24T23:57:06;4.80;;;1.13;;
